sensor_id;sensor_type;location;lat;lon;timestamp;P1;durP1;ratioP1;P2;durP2;ratioP2
3573;SDS011;1801;51.050;6.246;2023-02-15T00:00:49;57.50;;;21.50;;
3573;SDS011;1801;51.050;6.246;2023-02-15T00:03:15;54.73;;;22.63;;
3573;SDS011;1801;51.050;6.246;2023-02-15T00:05:40;53.40;;;23.60;;
3573;SDS011;1801;51.050;6.246;2023-02-15T00:08:06;49.73;;;21.53;;
3573;SDS011;1801;51.050;6.246;2023-02-15T00:10:31;52.13;;;22.30;;
3573;SDS011;1801;51.050;6.246;2023-02-15T00:12:56;47.90;;;20.30;;
3573;SDS011;1801;51.050;6.246;2023-02-15T00:15:21;44.90;;;19.80;;
3573;SDS011;1801;51.050;6.246;2023-02-15T00:17:46;52.37;;;21.67;;
3573;SDS011;1801;51.050;6.246;2023-02-15T00:20:11;53.93;;;20.00;;
3573;SDS011;1801;51.050;6.246;2023-02-15T00:22:37;44.63;;;18.13;;
3573;SDS011;1801;51.050;6.246;2023-02-15T00:25:02;44.63;;;17.10;;
3573;SDS011;1801;51.050;6.246;2023-02-15T00:27:27;44.33;;;16.13;;
3573;SDS011;1801;51.050;6.246;2023-02-15T00:29:52;44.00;;;19.17;;
3573;SDS011;1801;51.050;6.246;2023-02-15T00:32:18;40.07;;;17.10;;
3573;SDS011;1801;51.050;6.246;2023-02-15T00:34:43;43.80;;;16.47;;
3573;SDS011;1801;51.050;6.246;2023-02-15T00:37:08;46.50;;;20.53;;
3573;SDS011;1801;51.050;6.246;2023-02-15T00:39:33;35.93;;;17.50;;
3573;SDS011;1801;51.050;6.246;2023-02-15T00:41:58;36.10;;;16.40;;
3573;SDS011;1801;51.050;6.246;2023-02-15T00:44:24;39.77;;;17.10;;
3573;SDS011;1801;51.050;6.246;2023-02-15T00:46:49;43.27;;;17.23;;
3573;SDS011;1801;51.050;6.246;2023-02-15T00:49:14;46.33;;;18.20;;
3573;SDS011;1801;51.050;6.246;2023-02-15T00:51:39;45.53;;;16.80;;
3573;SDS011;1801;51.050;6.246;2023-02-15T00:54:05;46.77;;;18.63;;
3573;SDS011;1801;51.050;6.246;2023-02-15T00:56:30;45.97;;;19.17;;
3573;SDS011;1801;51.050;6.246;2023-02-15T00:58:56;49.20;;;17.90;;
3573;SDS011;1801;51.050;6.246;2023-02-15T01:01:21;49.67;;;18.50;;
3573;SDS011;1801;51.050;6.246;2023-02-15T01:03:46;52.17;;;19.23;;
3573;SDS011;1801;51.050;6.246;2023-02-15T01:06:12;46.40;;;18.93;;
3573;SDS011;1801;51.050;6.246;2023-02-15T01:08:38;49.90;;;19.20;;
3573;SDS011;1801;51.050;6.246;2023-02-15T01:11:07;41.87;;;18.03;;
3573;SDS011;1801;51.050;6.246;2023-02-15T01:13:33;50.65;;;18.20;;
3573;SDS011;1801;51.050;6.246;2023-02-15T01:15:58;47.20;;;17.20;;
3573;SDS011;1801;51.050;6.246;2023-02-15T01:18:23;36.87;;;15.90;;
3573;SDS011;1801;51.050;6.246;2023-02-15T01:20:48;39.77;;;16.30;;
3573;SDS011;1801;51.050;6.246;2023-02-15T01:23:14;51.23;;;20.90;;
3573;SDS011;1801;51.050;6.246;2023-02-15T01:25:39;52.87;;;23.97;;
3573;SDS011;1801;51.050;6.246;2023-02-15T01:28:04;52.77;;;21.37;;
3573;SDS011;1801;51.050;6.246;2023-02-15T01:30:30;46.53;;;20.43;;
3573;SDS011;1801;51.050;6.246;2023-02-15T01:32:55;56.83;;;20.90;;
3573;SDS011;1801;51.050;6.246;2023-02-15T01:35:21;53.10;;;24.20;;
3573;SDS011;1801;51.050;6.246;2023-02-15T01:37:46;70.33;;;27.30;;
3573;SDS011;1801;51.050;6.246;2023-02-15T01:40:12;71.80;;;26.57;;
3573;SDS011;1801;51.050;6.246;2023-02-15T01:42:37;55.35;;;23.70;;
3573;SDS011;1801;51.050;6.246;2023-02-15T01:45:04;48.53;;;19.00;;
3573;SDS011;1801;51.050;6.246;2023-02-15T01:47:32;49.25;;;20.83;;
3573;SDS011;1801;51.050;6.246;2023-02-15T01:50:03;56.65;;;23.00;;
3573;SDS011;1801;51.050;6.246;2023-02-15T01:52:31;51.85;;;20.92;;
3573;SDS011;1801;51.050;6.246;2023-02-15T01:54:56;54.37;;;20.90;;
3573;SDS011;1801;51.050;6.246;2023-02-15T01:57:22;51.23;;;20.53;;
3573;SDS011;1801;51.050;6.246;2023-02-15T01:59:49;58.50;;;21.05;;
3573;SDS011;1801;51.050;6.246;2023-02-15T02:02:16;57.25;;;20.98;;
3573;SDS011;1801;51.050;6.246;2023-02-15T02:04:49;55.13;;;20.60;;
3573;SDS011;1801;51.050;6.246;2023-02-15T02:07:15;65.38;;;21.98;;
3573;SDS011;1801;51.050;6.246;2023-02-15T02:09:41;57.10;;;22.58;;
3573;SDS011;1801;51.050;6.246;2023-02-15T02:12:06;60.60;;;20.77;;
3573;SDS011;1801;51.050;6.246;2023-02-15T02:14:32;50.73;;;21.17;;
3573;SDS011;1801;51.050;6.246;2023-02-15T02:16:58;61.23;;;22.57;;
3573;SDS011;1801;51.050;6.246;2023-02-15T02:22:24;51.05;;;19.95;;
3573;SDS011;1801;51.050;6.246;2023-02-15T02:27:30;56.05;;;20.45;;
3573;SDS011;1801;51.050;6.246;2023-02-15T02:43:28;58.30;;;20.67;;
3573;SDS011;1801;51.050;6.246;2023-02-15T02:46:05;64.50;;;19.55;;
3573;SDS011;1801;51.050;6.246;2023-02-15T02:48:32;66.22;;;21.95;;
3573;SDS011;1801;51.050;6.246;2023-02-15T02:50:58;54.47;;;20.23;;
3573;SDS011;1801;51.050;6.246;2023-02-15T02:53:23;57.40;;;22.67;;
3573;SDS011;1801;51.050;6.246;2023-02-15T02:58:24;54.75;;;20.63;;
3573;SDS011;1801;51.050;6.246;2023-02-15T03:00:59;61.90;;;20.35;;
3573;SDS011;1801;51.050;6.246;2023-02-15T03:03:30;55.40;;;20.08;;
3573;SDS011;1801;51.050;6.246;2023-02-15T03:05:58;65.72;;;20.67;;
3573;SDS011;1801;51.050;6.246;2023-02-15T03:08:25;65.75;;;22.23;;
3573;SDS011;1801;51.050;6.246;2023-02-15T03:10:53;59.67;;;22.92;;
3573;SDS011;1801;51.050;6.246;2023-02-15T03:13:19;66.13;;;24.10;;
3573;SDS011;1801;51.050;6.246;2023-02-15T03:15:45;57.03;;;23.30;;
3573;SDS011;1801;51.050;6.246;2023-02-15T03:18:34;69.57;;;22.95;;
3573;SDS011;1801;51.050;6.246;2023-02-15T03:21:01;56.40;;;21.30;;
3573;SDS011;1801;51.050;6.246;2023-02-15T03:23:33;65.78;;;24.75;;
3573;SDS011;1801;51.050;6.246;2023-02-15T03:26:00;64.20;;;21.15;;
3573;SDS011;1801;51.050;6.246;2023-02-15T03:28:36;66.95;;;24.70;;
3573;SDS011;1801;51.050;6.246;2023-02-15T03:31:04;67.43;;;22.35;;
3573;SDS011;1801;51.050;6.246;2023-02-15T03:33:30;65.60;;;21.80;;
3573;SDS011;1801;51.050;6.246;2023-02-15T03:36:42;54.13;;;21.80;;
3573;SDS011;1801;51.050;6.246;2023-02-15T03:38:46;67.32;;;23.85;;
3573;SDS011;1801;51.050;6.246;2023-02-15T03:41:12;63.33;;;22.88;;
3573;SDS011;1801;51.050;6.246;2023-02-15T03:43:44;62.90;;;22.27;;
3573;SDS011;1801;51.050;6.246;2023-02-15T03:46:12;64.95;;;23.77;;
3573;SDS011;1801;51.050;6.246;2023-02-15T03:48:39;68.32;;;24.13;;
3573;SDS011;1801;51.050;6.246;2023-02-15T03:51:10;59.42;;;22.73;;
3573;SDS011;1801;51.050;6.246;2023-02-15T03:53:55;63.75;;;23.20;;
3573;SDS011;1801;51.050;6.246;2023-02-15T03:56:21;66.97;;;25.93;;
3573;SDS011;1801;51.050;6.246;2023-02-15T03:58:46;56.10;;;21.00;;
3573;SDS011;1801;51.050;6.246;2023-02-15T04:01:34;57.95;;;23.05;;
3573;SDS011;1801;51.050;6.246;2023-02-15T04:04:16;70.85;;;22.85;;
3573;SDS011;1801;51.050;6.246;2023-02-15T04:06:43;54.28;;;21.05;;
3573;SDS011;1801;51.050;6.246;2023-02-15T04:09:08;62.70;;;22.40;;
3573;SDS011;1801;51.050;6.246;2023-02-15T04:11:51;60.85;;;21.13;;
3573;SDS011;1801;51.050;6.246;2023-02-15T04:14:16;57.73;;;18.77;;
3573;SDS011;1801;51.050;6.246;2023-02-15T04:17:00;61.97;;;22.58;;
3573;SDS011;1801;51.050;6.246;2023-02-15T04:19:25;59.17;;;22.70;;
3573;SDS011;1801;51.050;6.246;2023-02-15T04:22:09;60.58;;;20.45;;
3573;SDS011;1801;51.050;6.246;2023-02-15T04:24:53;55.05;;;20.95;;
3573;SDS011;1801;51.050;6.246;2023-02-15T04:27:37;66.03;;;22.08;;
3573;SDS011;1801;51.050;6.246;2023-02-15T04:30:03;55.67;;;19.90;;
3573;SDS011;1801;51.050;6.246;2023-02-15T04:32:28;72.17;;;21.00;;
3573;SDS011;1801;51.050;6.246;2023-02-15T04:34:54;63.83;;;25.00;;
3573;SDS011;1801;51.050;6.246;2023-02-15T04:37:19;69.10;;;21.57;;
3573;SDS011;1801;51.050;6.246;2023-02-15T04:39:44;59.13;;;22.23;;
3573;SDS011;1801;51.050;6.246;2023-02-15T04:42:09;61.00;;;22.23;;
3573;SDS011;1801;51.050;6.246;2023-02-15T04:44:34;60.00;;;21.60;;
3573;SDS011;1801;51.050;6.246;2023-02-15T04:46:59;56.37;;;21.30;;
3573;SDS011;1801;51.050;6.246;2023-02-15T04:49:25;62.80;;;24.63;;
3573;SDS011;1801;51.050;6.246;2023-02-15T04:51:50;52.90;;;20.53;;
3573;SDS011;1801;51.050;6.246;2023-02-15T04:54:15;55.73;;;21.70;;
3573;SDS011;1801;51.050;6.246;2023-02-15T04:56:40;60.67;;;21.93;;
3573;SDS011;1801;51.050;6.246;2023-02-15T04:59:05;62.03;;;22.03;;
3573;SDS011;1801;51.050;6.246;2023-02-15T05:01:30;55.20;;;20.97;;
3573;SDS011;1801;51.050;6.246;2023-02-15T05:03:56;67.23;;;23.07;;
3573;SDS011;1801;51.050;6.246;2023-02-15T05:06:21;72.93;;;24.80;;
3573;SDS011;1801;51.050;6.246;2023-02-15T05:08:46;49.33;;;22.87;;
3573;SDS011;1801;51.050;6.246;2023-02-15T05:11:11;60.43;;;24.00;;
3573;SDS011;1801;51.050;6.246;2023-02-15T05:13:37;56.50;;;21.20;;
3573;SDS011;1801;51.050;6.246;2023-02-15T05:16:02;67.10;;;23.17;;
3573;SDS011;1801;51.050;6.246;2023-02-15T05:18:27;67.80;;;21.50;;
3573;SDS011;1801;51.050;6.246;2023-02-15T05:20:52;59.87;;;21.10;;
3573;SDS011;1801;51.050;6.246;2023-02-15T05:23:17;64.23;;;24.47;;
3573;SDS011;1801;51.050;6.246;2023-02-15T05:25:46;73.47;;;23.00;;
3573;SDS011;1801;51.050;6.246;2023-02-15T05:28:30;73.30;;;22.55;;
3573;SDS011;1801;51.050;6.246;2023-02-15T05:31:05;58.67;;;22.00;;
3573;SDS011;1801;51.050;6.246;2023-02-15T05:33:31;61.78;;;21.63;;
3573;SDS011;1801;51.050;6.246;2023-02-15T05:35:57;62.70;;;21.20;;
3573;SDS011;1801;51.050;6.246;2023-02-15T05:38:22;53.43;;;20.73;;
3573;SDS011;1801;51.050;6.246;2023-02-15T05:40:47;52.83;;;21.10;;
3573;SDS011;1801;51.050;6.246;2023-02-15T05:43:12;67.00;;;22.60;;
3573;SDS011;1801;51.050;6.246;2023-02-15T05:45:38;71.27;;;20.60;;
3573;SDS011;1801;51.050;6.246;2023-02-15T05:48:03;76.00;;;23.40;;
3573;SDS011;1801;51.050;6.246;2023-02-15T05:50:28;68.33;;;22.90;;
3573;SDS011;1801;51.050;6.246;2023-02-15T05:52:59;69.47;;;24.83;;
3573;SDS011;1801;51.050;6.246;2023-02-15T05:55:43;54.90;;;22.92;;
3573;SDS011;1801;51.050;6.246;2023-02-15T05:58:08;55.80;;;23.00;;
3573;SDS011;1801;51.050;6.246;2023-02-15T06:00:33;64.43;;;24.03;;
3573;SDS011;1801;51.050;6.246;2023-02-15T06:02:59;56.73;;;22.97;;
3573;SDS011;1801;51.050;6.246;2023-02-15T06:05:24;75.80;;;23.70;;
3573;SDS011;1801;51.050;6.246;2023-02-15T06:07:57;65.37;;;21.77;;
3573;SDS011;1801;51.050;6.246;2023-02-15T06:10:22;65.53;;;24.13;;
3573;SDS011;1801;51.050;6.246;2023-02-15T06:12:47;60.93;;;20.67;;
3573;SDS011;1801;51.050;6.246;2023-02-15T06:15:12;67.03;;;23.50;;
3573;SDS011;1801;51.050;6.246;2023-02-15T06:17:40;72.97;;;24.93;;
3573;SDS011;1801;51.050;6.246;2023-02-15T06:20:05;60.88;;;21.77;;
3573;SDS011;1801;51.050;6.246;2023-02-15T06:22:31;58.43;;;21.00;;
3573;SDS011;1801;51.050;6.246;2023-02-15T06:24:56;67.50;;;22.90;;
3573;SDS011;1801;51.050;6.246;2023-02-15T06:27:21;66.43;;;22.93;;
3573;SDS011;1801;51.050;6.246;2023-02-15T06:29:46;63.93;;;22.50;;
3573;SDS011;1801;51.050;6.246;2023-02-15T06:32:11;61.00;;;23.87;;
3573;SDS011;1801;51.050;6.246;2023-02-15T06:34:36;67.03;;;23.40;;
3573;SDS011;1801;51.050;6.246;2023-02-15T06:37:02;66.50;;;23.20;;
3573;SDS011;1801;51.050;6.246;2023-02-15T06:39:27;60.93;;;23.03;;
3573;SDS011;1801;51.050;6.246;2023-02-15T06:41:52;63.33;;;22.63;;
3573;SDS011;1801;51.050;6.246;2023-02-15T06:44:17;62.90;;;22.50;;
3573;SDS011;1801;51.050;6.246;2023-02-15T06:46:42;58.53;;;24.03;;
3573;SDS011;1801;51.050;6.246;2023-02-15T06:49:08;73.07;;;24.87;;
3573;SDS011;1801;51.050;6.246;2023-02-15T06:51:33;69.23;;;24.20;;
3573;SDS011;1801;51.050;6.246;2023-02-15T06:53:59;74.17;;;23.30;;
3573;SDS011;1801;51.050;6.246;2023-02-15T06:56:24;63.37;;;23.50;;
3573;SDS011;1801;51.050;6.246;2023-02-15T06:58:49;60.90;;;21.53;;
3573;SDS011;1801;51.050;6.246;2023-02-15T07:01:15;53.90;;;21.30;;
3573;SDS011;1801;51.050;6.246;2023-02-15T07:03:40;63.80;;;24.13;;
3573;SDS011;1801;51.050;6.246;2023-02-15T07:06:05;83.07;;;26.90;;
3573;SDS011;1801;51.050;6.246;2023-02-15T07:08:33;67.15;;;23.17;;
3573;SDS011;1801;51.050;6.246;2023-02-15T07:10:58;73.53;;;25.97;;
3573;SDS011;1801;51.050;6.246;2023-02-15T07:13:43;65.07;;;23.52;;
3573;SDS011;1801;51.050;6.246;2023-02-15T07:16:09;73.60;;;24.97;;
3573;SDS011;1801;51.050;6.246;2023-02-15T07:18:35;69.32;;;24.92;;
3573;SDS011;1801;51.050;6.246;2023-02-15T07:21:00;69.97;;;23.20;;
3573;SDS011;1801;51.050;6.246;2023-02-15T07:23:25;63.47;;;21.43;;
3573;SDS011;1801;51.050;6.246;2023-02-15T07:32:02;52.92;;;19.58;;
3573;SDS011;1801;51.050;6.246;2023-02-15T07:34:27;56.33;;;20.27;;
3573;SDS011;1801;51.050;6.246;2023-02-15T07:36:52;68.07;;;20.97;;
3573;SDS011;1801;51.050;6.246;2023-02-15T07:39:18;58.23;;;21.37;;
3573;SDS011;1801;51.050;6.246;2023-02-15T07:41:43;56.80;;;20.30;;
3573;SDS011;1801;51.050;6.246;2023-02-15T07:44:12;55.53;;;19.67;;
3573;SDS011;1801;51.050;6.246;2023-02-15T07:46:38;69.22;;;22.88;;
3573;SDS011;1801;51.050;6.246;2023-02-15T07:49:03;61.93;;;21.30;;
3573;SDS011;1801;51.050;6.246;2023-02-15T07:51:28;56.40;;;21.07;;
3573;SDS011;1801;51.050;6.246;2023-02-15T07:53:53;67.00;;;20.47;;
3573;SDS011;1801;51.050;6.246;2023-02-15T07:56:20;61.67;;;20.73;;
3573;SDS011;1801;51.050;6.246;2023-02-15T07:58:45;53.20;;;20.20;;
3573;SDS011;1801;51.050;6.246;2023-02-15T08:01:17;67.25;;;21.27;;
3573;SDS011;1801;51.050;6.246;2023-02-15T08:03:42;43.33;;;19.45;;
3573;SDS011;1801;51.050;6.246;2023-02-15T08:06:07;56.00;;;20.27;;
3573;SDS011;1801;51.050;6.246;2023-02-15T08:08:33;52.67;;;21.93;;
3573;SDS011;1801;51.050;6.246;2023-02-15T08:10:59;48.20;;;18.97;;
3573;SDS011;1801;51.050;6.246;2023-02-15T08:13:47;54.25;;;21.58;;
3573;SDS011;1801;51.050;6.246;2023-02-15T08:16:19;45.35;;;18.38;;
3573;SDS011;1801;51.050;6.246;2023-02-15T08:18:44;50.20;;;21.10;;
3573;SDS011;1801;51.050;6.246;2023-02-15T08:21:09;55.27;;;18.90;;
3573;SDS011;1801;51.050;6.246;2023-02-15T08:23:34;45.73;;;18.60;;
3573;SDS011;1801;51.050;6.246;2023-02-15T08:25:59;50.30;;;20.20;;
3573;SDS011;1801;51.050;6.246;2023-02-15T08:28:25;45.03;;;19.00;;
3573;SDS011;1801;51.050;6.246;2023-02-15T08:30:50;60.73;;;19.90;;
3573;SDS011;1801;51.050;6.246;2023-02-15T08:33:15;45.60;;;18.37;;
3573;SDS011;1801;51.050;6.246;2023-02-15T08:35:42;44.58;;;18.45;;
3573;SDS011;1801;51.050;6.246;2023-02-15T08:38:08;43.60;;;18.80;;
3573;SDS011;1801;51.050;6.246;2023-02-15T08:40:33;43.70;;;18.57;;
3573;SDS011;1801;51.050;6.246;2023-02-15T08:42:59;53.65;;;18.92;;
3573;SDS011;1801;51.050;6.246;2023-02-15T08:45:24;40.80;;;17.57;;
3573;SDS011;1801;51.050;6.246;2023-02-15T08:47:50;46.87;;;19.90;;
3573;SDS011;1801;51.050;6.246;2023-02-15T08:50:15;46.33;;;18.27;;
3573;SDS011;1801;51.050;6.246;2023-02-15T08:52:40;45.13;;;18.03;;
3573;SDS011;1801;51.050;6.246;2023-02-15T08:55:05;39.37;;;17.13;;
3573;SDS011;1801;51.050;6.246;2023-02-15T08:57:31;42.80;;;17.40;;
3573;SDS011;1801;51.050;6.246;2023-02-15T08:59:56;36.00;;;17.10;;
3573;SDS011;1801;51.050;6.246;2023-02-15T09:02:21;40.10;;;18.07;;
3573;SDS011;1801;51.050;6.246;2023-02-15T09:04:46;44.13;;;16.27;;
3573;SDS011;1801;51.050;6.246;2023-02-15T09:07:11;45.67;;;17.03;;
3573;SDS011;1801;51.050;6.246;2023-02-15T09:09:37;48.07;;;20.90;;
3573;SDS011;1801;51.050;6.246;2023-02-15T09:12:02;40.27;;;16.97;;
3573;SDS011;1801;51.050;6.246;2023-02-15T09:14:27;54.17;;;20.70;;
3573;SDS011;1801;51.050;6.246;2023-02-15T09:16:53;40.53;;;19.00;;
3573;SDS011;1801;51.050;6.246;2023-02-15T09:19:19;40.87;;;19.13;;
3573;SDS011;1801;51.050;6.246;2023-02-15T09:21:44;43.23;;;17.53;;
3573;SDS011;1801;51.050;6.246;2023-02-15T09:24:11;44.30;;;16.30;;
3573;SDS011;1801;51.050;6.246;2023-02-15T09:26:37;38.40;;;16.08;;
3573;SDS011;1801;51.050;6.246;2023-02-15T09:29:05;40.08;;;18.42;;
3573;SDS011;1801;51.050;6.246;2023-02-15T09:31:31;38.90;;;16.97;;
3573;SDS011;1801;51.050;6.246;2023-02-15T09:33:58;37.30;;;16.53;;
3573;SDS011;1801;51.050;6.246;2023-02-15T09:38:54;45.30;;;21.00;;
3573;SDS011;1801;51.050;6.246;2023-02-15T09:48:58;42.40;;;19.10;;
3573;SDS011;1801;51.050;6.246;2023-02-15T09:51:50;40.13;;;19.03;;
3573;SDS011;1801;51.050;6.246;2023-02-15T09:56:58;47.40;;;20.27;;
3573;SDS011;1801;51.050;6.246;2023-02-15T10:04:29;45.40;;;21.67;;
3573;SDS011;1801;51.050;6.246;2023-02-15T10:07:01;36.50;;;16.80;;
3573;SDS011;1801;51.050;6.246;2023-02-15T10:09:38;39.83;;;19.47;;
3573;SDS011;1801;51.050;6.246;2023-02-15T10:17:52;32.97;;;16.37;;
3573;SDS011;1801;51.050;6.246;2023-02-15T10:23:10;33.27;;;16.57;;
3573;SDS011;1801;51.050;6.246;2023-02-15T10:25:42;37.53;;;16.80;;
3573;SDS011;1801;51.050;6.246;2023-02-15T10:28:20;36.30;;;16.37;;
3573;SDS011;1801;51.050;6.246;2023-02-15T10:30:49;35.50;;;17.10;;
3573;SDS011;1801;51.050;6.246;2023-02-15T10:33:34;34.53;;;16.47;;
3573;SDS011;1801;51.050;6.246;2023-02-15T10:36:10;42.13;;;17.40;;
3573;SDS011;1801;51.050;6.246;2023-02-15T10:38:38;37.00;;;19.50;;
3573;SDS011;1801;51.050;6.246;2023-02-15T10:44:01;35.40;;;18.13;;
3573;SDS011;1801;51.050;6.246;2023-02-15T11:07:06;32.17;;;17.00;;
3573;SDS011;1801;51.050;6.246;2023-02-15T11:09:37;36.17;;;17.73;;
3573;SDS011;1801;51.050;6.246;2023-02-15T11:12:03;31.53;;;16.43;;
3573;SDS011;1801;51.050;6.246;2023-02-15T11:16:59;27.97;;;15.80;;
3573;SDS011;1801;51.050;6.246;2023-02-15T11:19:31;29.33;;;15.97;;
3573;SDS011;1801;51.050;6.246;2023-02-15T11:21:58;29.20;;;16.23;;
3573;SDS011;1801;51.050;6.246;2023-02-15T11:24:26;32.77;;;16.47;;
3573;SDS011;1801;51.050;6.246;2023-02-15T11:26:54;30.90;;;16.13;;
3573;SDS011;1801;51.050;6.246;2023-02-15T11:31:49;27.20;;;16.90;;
3573;SDS011;1801;51.050;6.246;2023-02-15T11:34:20;35.63;;;16.53;;
3573;SDS011;1801;51.050;6.246;2023-02-15T11:36:46;34.40;;;17.67;;
3573;SDS011;1801;51.050;6.246;2023-02-15T11:39:14;28.83;;;15.77;;
3573;SDS011;1801;51.050;6.246;2023-02-15T11:41:41;34.93;;;17.50;;
3573;SDS011;1801;51.050;6.246;2023-02-15T11:44:12;27.60;;;16.30;;
3573;SDS011;1801;51.050;6.246;2023-02-15T11:46:40;30.53;;;17.00;;
3573;SDS011;1801;51.050;6.246;2023-02-15T11:49:39;35.30;;;15.90;;
3573;SDS011;1801;51.050;6.246;2023-02-15T11:51:57;43.03;;;19.20;;
3573;SDS011;1801;51.050;6.246;2023-02-15T11:54:26;32.37;;;16.30;;
3573;SDS011;1801;51.050;6.246;2023-02-15T11:56:53;28.03;;;16.37;;
3573;SDS011;1801;51.050;6.246;2023-02-15T11:59:21;32.83;;;15.70;;
3573;SDS011;1801;51.050;6.246;2023-02-15T12:01:49;36.07;;;16.90;;
3573;SDS011;1801;51.050;6.246;2023-02-15T12:04:23;29.97;;;16.10;;
3573;SDS011;1801;51.050;6.246;2023-02-15T12:06:51;33.20;;;16.93;;
3573;SDS011;1801;51.050;6.246;2023-02-15T12:09:34;31.60;;;16.83;;
3573;SDS011;1801;51.050;6.246;2023-02-15T12:14:50;33.70;;;16.97;;
3573;SDS011;1801;51.050;6.246;2023-02-15T12:17:15;32.60;;;18.60;;
3573;SDS011;1801;51.050;6.246;2023-02-15T12:19:41;32.60;;;16.37;;
3573;SDS011;1801;51.050;6.246;2023-02-15T12:22:17;34.10;;;15.93;;
3573;SDS011;1801;51.050;6.246;2023-02-15T12:24:44;30.70;;;17.10;;
3573;SDS011;1801;51.050;6.246;2023-02-15T12:27:17;33.20;;;18.50;;
3573;SDS011;1801;51.050;6.246;2023-02-15T12:29:45;31.57;;;18.43;;
3573;SDS011;1801;51.050;6.246;2023-02-15T12:32:24;30.50;;;16.33;;
3573;SDS011;1801;51.050;6.246;2023-02-15T12:34:50;31.23;;;17.07;;
3573;SDS011;1801;51.050;6.246;2023-02-15T12:39:50;30.40;;;16.20;;
3573;SDS011;1801;51.050;6.246;2023-02-15T12:42:16;26.80;;;15.60;;
3573;SDS011;1801;51.050;6.246;2023-02-15T12:45:00;30.93;;;17.23;;
3573;SDS011;1801;51.050;6.246;2023-02-15T12:47:26;30.47;;;16.37;;
3573;SDS011;1801;51.050;6.246;2023-02-15T12:52:28;30.40;;;16.93;;
3573;SDS011;1801;51.050;6.246;2023-02-15T12:54:54;30.20;;;16.00;;
3573;SDS011;1801;51.050;6.246;2023-02-15T12:59:48;30.90;;;17.27;;
3573;SDS011;1801;51.050;6.246;2023-02-15T13:02:47;32.90;;;18.30;;
3573;SDS011;1801;51.050;6.246;2023-02-15T13:05:10;31.07;;;17.80;;
3573;SDS011;1801;51.050;6.246;2023-02-15T13:07:44;30.77;;;17.60;;
3573;SDS011;1801;51.050;6.246;2023-02-15T13:10:18;35.67;;;18.60;;
3573;SDS011;1801;51.050;6.246;2023-02-15T13:12:46;38.43;;;19.03;;
3573;SDS011;1801;51.050;6.246;2023-02-15T13:15:22;33.33;;;19.27;;
3573;SDS011;1801;51.050;6.246;2023-02-15T13:17:49;30.80;;;17.40;;
3573;SDS011;1801;51.050;6.246;2023-02-15T13:20:16;33.90;;;20.30;;
3573;SDS011;1801;51.050;6.246;2023-02-15T13:22:44;32.90;;;18.70;;
3573;SDS011;1801;51.050;6.246;2023-02-15T13:25:22;37.60;;;21.00;;
3573;SDS011;1801;51.050;6.246;2023-02-15T13:27:50;38.87;;;19.83;;
3573;SDS011;1801;51.050;6.246;2023-02-15T13:30:19;35.10;;;20.80;;
3573;SDS011;1801;51.050;6.246;2023-02-15T13:32:46;37.97;;;19.23;;
3573;SDS011;1801;51.050;6.246;2023-02-15T13:35:14;38.93;;;19.77;;
3573;SDS011;1801;51.050;6.246;2023-02-15T13:42:39;40.13;;;19.17;;
3573;SDS011;1801;51.050;6.246;2023-02-15T13:50:10;34.77;;;17.70;;
3573;SDS011;1801;51.050;6.246;2023-02-15T13:52:41;35.03;;;21.17;;
3573;SDS011;1801;51.050;6.246;2023-02-15T13:55:28;31.40;;;18.03;;
3573;SDS011;1801;51.050;6.246;2023-02-15T14:25:40;35.30;;;17.30;;
3573;SDS011;1801;51.050;6.246;2023-02-15T14:28:11;26.93;;;16.57;;
3573;SDS011;1801;51.050;6.246;2023-02-15T14:30:38;32.67;;;17.77;;
3573;SDS011;1801;51.050;6.246;2023-02-15T14:33:28;22.70;;;14.93;;
3573;SDS011;1801;51.050;6.246;2023-02-15T14:35:53;28.70;;;16.50;;
3573;SDS011;1801;51.050;6.246;2023-02-15T14:38:28;38.40;;;16.83;;
3573;SDS011;1801;51.050;6.246;2023-02-15T14:41:13;36.00;;;17.30;;
3573;SDS011;1801;51.050;6.246;2023-02-15T14:49:12;27.03;;;16.10;;
3573;SDS011;1801;51.050;6.246;2023-02-15T14:52:23;32.37;;;18.07;;
3573;SDS011;1801;51.050;6.246;2023-02-15T14:59:26;28.53;;;15.53;;
3573;SDS011;1801;51.050;6.246;2023-02-15T15:01:58;35.00;;;17.73;;
3573;SDS011;1801;51.050;6.246;2023-02-15T15:04:34;35.37;;;18.70;;
3573;SDS011;1801;51.050;6.246;2023-02-15T15:09:26;35.15;;;18.70;;
3573;SDS011;1801;51.050;6.246;2023-02-15T15:11:53;33.97;;;17.97;;
3573;SDS011;1801;51.050;6.246;2023-02-15T15:16:59;34.93;;;17.30;;
3573;SDS011;1801;51.050;6.246;2023-02-15T15:22:16;31.43;;;18.30;;
3573;SDS011;1801;51.050;6.246;2023-02-15T15:29:50;42.50;;;18.50;;
3573;SDS011;1801;51.050;6.246;2023-02-15T15:32:16;36.07;;;17.13;;
3573;SDS011;1801;51.050;6.246;2023-02-15T15:40:08;35.70;;;19.00;;
3573;SDS011;1801;51.050;6.246;2023-02-15T15:42:46;36.90;;;19.67;;
3573;SDS011;1801;51.050;6.246;2023-02-15T15:50:34;67.07;;;25.53;;
3573;SDS011;1801;51.050;6.246;2023-02-15T15:53:03;63.57;;;27.73;;
3573;SDS011;1801;51.050;6.246;2023-02-15T15:55:30;78.27;;;32.97;;
3573;SDS011;1801;51.050;6.246;2023-02-15T15:57:59;65.43;;;25.40;;
3573;SDS011;1801;51.050;6.246;2023-02-15T16:02:53;49.00;;;21.43;;
3573;SDS011;1801;51.050;6.246;2023-02-15T16:05:20;39.20;;;19.50;;
3573;SDS011;1801;51.050;6.246;2023-02-15T16:07:45;39.83;;;20.33;;
3573;SDS011;1801;51.050;6.246;2023-02-15T16:10:24;40.37;;;20.13;;
3573;SDS011;1801;51.050;6.246;2023-02-15T16:12:49;46.27;;;19.47;;
3573;SDS011;1801;51.050;6.246;2023-02-15T16:15:17;45.03;;;20.30;;
3573;SDS011;1801;51.050;6.246;2023-02-15T16:17:43;43.33;;;19.87;;
3573;SDS011;1801;51.050;6.246;2023-02-15T16:20:15;38.30;;;18.83;;
3573;SDS011;1801;51.050;6.246;2023-02-15T16:22:43;36.87;;;17.03;;
3573;SDS011;1801;51.050;6.246;2023-02-15T16:27:37;40.63;;;19.77;;
3573;SDS011;1801;51.050;6.246;2023-02-15T16:30:24;36.30;;;17.40;;
3573;SDS011;1801;51.050;6.246;2023-02-15T16:32:53;36.17;;;17.93;;
3573;SDS011;1801;51.050;6.246;2023-02-15T16:35:19;43.27;;;16.63;;
3573;SDS011;1801;51.050;6.246;2023-02-15T16:37:45;38.87;;;17.03;;
3573;SDS011;1801;51.050;6.246;2023-02-15T16:40:25;46.90;;;22.03;;
3573;SDS011;1801;51.050;6.246;2023-02-15T16:42:56;56.03;;;23.23;;
3573;SDS011;1801;51.050;6.246;2023-02-15T16:45:22;42.90;;;20.50;;
3573;SDS011;1801;51.050;6.246;2023-02-15T16:47:49;50.13;;;21.17;;
3573;SDS011;1801;51.050;6.246;2023-02-15T16:50:19;39.57;;;19.10;;
3573;SDS011;1801;51.050;6.246;2023-02-15T16:52:45;44.73;;;21.37;;
3573;SDS011;1801;51.050;6.246;2023-02-15T16:55:19;42.73;;;20.10;;
3573;SDS011;1801;51.050;6.246;2023-02-15T16:57:45;46.73;;;21.03;;
3573;SDS011;1801;51.050;6.246;2023-02-15T17:00:30;50.37;;;21.30;;
3573;SDS011;1801;51.050;6.246;2023-02-15T17:03:03;43.33;;;20.23;;
3573;SDS011;1801;51.050;6.246;2023-02-15T17:05:47;50.67;;;24.27;;
3573;SDS011;1801;51.050;6.246;2023-02-15T17:10:41;45.07;;;24.00;;
3573;SDS011;1801;51.050;6.246;2023-02-15T17:13:16;47.03;;;21.67;;
3573;SDS011;1801;51.050;6.246;2023-02-15T17:15:42;50.30;;;23.30;;
3573;SDS011;1801;51.050;6.246;2023-02-15T17:18:15;50.37;;;21.83;;
3573;SDS011;1801;51.050;6.246;2023-02-15T17:20:41;48.63;;;24.83;;
3573;SDS011;1801;51.050;6.246;2023-02-15T17:23:17;46.10;;;23.20;;
3573;SDS011;1801;51.050;6.246;2023-02-15T17:25:45;36.70;;;18.97;;
3573;SDS011;1801;51.050;6.246;2023-02-15T17:28:17;56.67;;;22.50;;
3573;SDS011;1801;51.050;6.246;2023-02-15T17:30:43;51.70;;;21.10;;
3573;SDS011;1801;51.050;6.246;2023-02-15T17:35:45;35.53;;;17.20;;
3573;SDS011;1801;51.050;6.246;2023-02-15T17:38:26;46.27;;;20.77;;
3573;SDS011;1801;51.050;6.246;2023-02-15T17:40:51;38.93;;;17.70;;
3573;SDS011;1801;51.050;6.246;2023-02-15T17:43:17;42.57;;;19.67;;
3573;SDS011;1801;51.050;6.246;2023-02-15T17:45:51;43.77;;;18.60;;
3573;SDS011;1801;51.050;6.246;2023-02-15T17:48:20;47.43;;;17.70;;
3573;SDS011;1801;51.050;6.246;2023-02-15T17:50:46;39.00;;;18.83;;